sensor_id;sensor_type;location;lat;lon;timestamp;pressure;altitude;pressure_sealevel;temperature;humidity
75146;BME280;63641;46.526;24.612;2023-11-21T00:02:26;96806.47;;;6.36;78.48
75146;BME280;63641;46.526;24.612;2023-11-21T00:04:54;96819.38;;;6.39;78.49
75146;BME280;63641;46.526;24.612;2023-11-21T00:07:21;96783.63;;;6.23;78.32
75146;BME280;63641;46.526;24.612;2023-11-21T00:09:48;96803.25;;;6.34;78.49
75146;BME280;63641;46.526;24.612;2023-11-21T00:12:15;96807.56;;;6.35;78.41
75146;BME280;63641;46.526;24.612;2023-11-21T00:14:42;96816.97;;;6.37;78.46
75146;BME280;63641;46.526;24.612;2023-11-21T00:17:08;96815.88;;;6.38;78.45
75146;BME280;63641;46.526;24.612;2023-11-21T00:19:35;96810.75;;;6.37;78.65
75146;BME280;63641;46.526;24.612;2023-11-21T00:22:02;96811.88;;;6.41;78.54
75146;BME280;63641;46.526;24.612;2023-11-21T00:24:29;96820.44;;;6.43;78.49
75146;BME280;63641;46.526;24.612;2023-11-21T00:26:56;96814.00;;;6.39;78.45
75146;BME280;63641;46.526;24.612;2023-11-21T00:29:22;96828.28;;;6.44;78.51
75146;BME280;63641;46.526;24.612;2023-11-21T00:31:49;96825.59;;;6.44;78.54
75146;BME280;63641;46.526;24.612;2023-11-21T00:34:16;96828.00;;;6.46;78.46
75146;BME280;63641;46.526;24.612;2023-11-21T00:36:42;96823.41;;;6.46;78.39
75146;BME280;63641;46.526;24.612;2023-11-21T00:39:09;96815.63;;;6.45;78.45
75146;BME280;63641;46.526;24.612;2023-11-21T00:41:36;96820.72;;;6.46;78.50
75146;BME280;63641;46.526;24.612;2023-11-21T00:44:03;96826.91;;;6.47;78.46
75146;BME280;63641;46.526;24.612;2023-11-21T00:46:30;96808.63;;;6.44;78.68
75146;BME280;63641;46.526;24.612;2023-11-21T00:48:57;96809.97;;;6.46;78.59
75146;BME280;63641;46.526;24.612;2023-11-21T00:51:24;96807.31;;;6.41;78.66
75146;BME280;63641;46.526;24.612;2023-11-21T00:53:51;96815.63;;;6.45;78.54
75146;BME280;63641;46.526;24.612;2023-11-21T00:56:18;96787.13;;;6.39;78.68
75146;BME280;63641;46.526;24.612;2023-11-21T00:58:44;96798.16;;;6.42;78.63
75146;BME280;63641;46.526;24.612;2023-11-21T01:01:16;96808.91;;;6.47;78.71
75146;BME280;63641;46.526;24.612;2023-11-21T01:03:46;96806.22;;;6.47;78.74
75146;BME280;63641;46.526;24.612;2023-11-21T01:06:12;96802.47;;;6.48;78.81
75146;BME280;63641;46.526;24.612;2023-11-21T01:08:42;96807.28;;;6.46;78.78
75146;BME280;63641;46.526;24.612;2023-11-21T01:11:08;96811.84;;;6.51;78.81
75146;BME280;63641;46.526;24.612;2023-11-21T01:13:37;96792.78;;;6.47;78.73
75146;BME280;63641;46.526;24.612;2023-11-21T01:16:04;96800.56;;;6.54;78.86
75146;BME280;63641;46.526;24.612;2023-11-21T01:18:33;96792.78;;;6.52;78.75
75146;BME280;63641;46.526;24.612;2023-11-21T01:20:59;96785.25;;;6.54;78.82
75146;BME280;63641;46.526;24.612;2023-11-21T01:23:27;96780.97;;;6.48;78.75
75146;BME280;63641;46.526;24.612;2023-11-21T01:25:56;96799.22;;;6.51;78.83
75146;BME280;63641;46.526;24.612;2023-11-21T01:28:22;96791.16;;;6.46;78.95
75146;BME280;63641;46.526;24.612;2023-11-21T01:30:49;96800.59;;;6.49;79.00
75146;BME280;63641;46.526;24.612;2023-11-21T01:33:16;96788.75;;;6.50;78.96
75146;BME280;63641;46.526;24.612;2023-11-21T01:35:43;96774.75;;;6.48;78.80
75146;BME280;63641;46.526;24.612;2023-11-21T01:38:10;96796.00;;;6.54;78.98
75146;BME280;63641;46.526;24.612;2023-11-21T01:40:36;96788.50;;;6.57;78.95
75146;BME280;63641;46.526;24.612;2023-11-21T01:43:03;96783.13;;;6.57;78.97
75146;BME280;63641;46.526;24.612;2023-11-21T01:45:30;96792.25;;;6.56;78.74
75146;BME280;63641;46.526;24.612;2023-11-21T01:48:00;96783.94;;;6.52;78.81
75146;BME280;63641;46.526;24.612;2023-11-21T01:50:29;96784.97;;;6.51;78.80
75146;BME280;63641;46.526;24.612;2023-11-21T01:52:56;96791.16;;;6.51;79.05
75146;BME280;63641;46.526;24.612;2023-11-21T01:55:23;96792.00;;;6.52;79.13
75146;BME280;63641;46.526;24.612;2023-11-21T01:57:54;96782.81;;;6.48;79.09
75146;BME280;63641;46.526;24.612;2023-11-21T02:00:22;96788.75;;;6.50;79.05
75146;BME280;63641;46.526;24.612;2023-11-21T02:02:51;96784.97;;;6.51;78.98
75146;BME280;63641;46.526;24.612;2023-11-21T02:05:19;96777.72;;;6.46;78.95
75146;BME280;63641;46.526;24.612;2023-11-21T02:07:47;96784.72;;;6.47;78.86
75146;BME280;63641;46.526;24.612;2023-11-21T02:10:19;96769.69;;;6.41;78.96
75146;BME280;63641;46.526;24.612;2023-11-21T02:12:50;96794.94;;;6.56;78.99
75146;BME280;63641;46.526;24.612;2023-11-21T02:15:18;96793.06;;;6.56;78.85
75146;BME280;63641;46.526;24.612;2023-11-21T02:17:48;96785.25;;;6.54;78.97
75146;BME280;63641;46.526;24.612;2023-11-21T02:20:20;96788.75;;;6.55;78.98
75146;BME280;63641;46.526;24.612;2023-11-21T02:22:56;96792.50;;;6.54;78.89
75146;BME280;63641;46.526;24.612;2023-11-21T02:25:30;96795.19;;;6.54;78.79
75146;BME280;63641;46.526;24.612;2023-11-21T02:28:02;96787.13;;;6.54;78.91
75146;BME280;63641;46.526;24.612;2023-11-21T02:30:30;96788.22;;;6.53;79.03
75146;BME280;63641;46.526;24.612;2023-11-21T02:33:00;96791.16;;;6.51;78.79
75146;BME280;63641;46.526;24.612;2023-11-21T02:35:28;96797.63;;;6.50;78.89
75146;BME280;63641;46.526;24.612;2023-11-21T02:37:55;96797.09;;;6.48;78.99
75146;BME280;63641;46.526;24.612;2023-11-21T02:40:22;96797.38;;;6.52;79.03
75146;BME280;63641;46.526;24.612;2023-11-21T02:42:51;96790.63;;;6.49;78.70
75146;BME280;63641;46.526;24.612;2023-11-21T02:45:19;96796.81;;;6.55;79.02
75146;BME280;63641;46.526;24.612;2023-11-21T02:47:48;96797.63;;;6.56;78.85
75146;BME280;63641;46.526;24.612;2023-11-21T02:50:20;96789.56;;;6.50;78.75
75146;BME280;63641;46.526;24.612;2023-11-21T02:52:47;96806.50;;;6.56;78.76
75146;BME280;63641;46.526;24.612;2023-11-21T02:55:14;96816.47;;;6.56;78.85
75146;BME280;63641;46.526;24.612;2023-11-21T02:57:41;96811.59;;;6.58;78.86
75146;BME280;63641;46.526;24.612;2023-11-21T03:00:08;96808.91;;;6.58;78.77
75146;BME280;63641;46.526;24.612;2023-11-21T03:02:36;96811.59;;;6.58;79.01
75146;BME280;63641;46.526;24.612;2023-11-21T03:05:06;96810.25;;;6.60;78.88
75146;BME280;63641;46.526;24.612;2023-11-21T03:07:39;96824.50;;;6.61;78.63
75146;BME280;63641;46.526;24.612;2023-11-21T03:10:07;96815.38;;;6.57;78.86
75146;BME280;63641;46.526;24.612;2023-11-21T03:12:38;96800.84;;;6.47;78.66
75146;BME280;63641;46.526;24.612;2023-11-21T03:15:06;96817.78;;;6.58;78.66
75146;BME280;63641;46.526;24.612;2023-11-21T03:17:34;96812.69;;;6.57;78.70
75146;BME280;63641;46.526;24.612;2023-11-21T03:20:01;96813.75;;;6.56;78.71
75146;BME280;63641;46.526;24.612;2023-11-21T03:22:28;96811.59;;;6.58;78.61
75146;BME280;63641;46.526;24.612;2023-11-21T03:24:54;96818.59;;;6.59;78.74
75146;BME280;63641;46.526;24.612;2023-11-21T03:27:21;96812.41;;;6.58;78.58
75146;BME280;63641;46.526;24.612;2023-11-21T03:29:48;96817.78;;;6.58;78.62
75146;BME280;63641;46.526;24.612;2023-11-21T03:32:16;96816.97;;;6.58;78.52
75146;BME280;63641;46.526;24.612;2023-11-21T03:34:58;96814.28;;;6.58;78.25
75146;BME280;63641;46.526;24.612;2023-11-21T03:37:26;96820.22;;;6.60;78.54
75146;BME280;63641;46.526;24.612;2023-11-21T03:39:55;96814.28;;;6.52;78.40
75146;BME280;63641;46.526;24.612;2023-11-21T03:42:23;96817.78;;;6.58;78.47
75146;BME280;63641;46.526;24.612;2023-11-21T03:44:53;96821.56;;;6.57;78.53
75146;BME280;63641;46.526;24.612;2023-11-21T03:47:19;96833.63;;;6.54;78.41
75146;BME280;63641;46.526;24.612;2023-11-21T03:49:46;96824.50;;;6.50;78.49
75146;BME280;63641;46.526;24.612;2023-11-21T03:52:13;96825.56;;;6.49;78.52
75146;BME280;63641;46.526;24.612;2023-11-21T03:54:40;96826.66;;;6.48;78.63
75146;BME280;63641;46.526;24.612;2023-11-21T03:57:07;96825.56;;;6.49;78.60
75146;BME280;63641;46.526;24.612;2023-11-21T03:59:33;96822.06;;;6.44;78.47
75146;BME280;63641;46.526;24.612;2023-11-21T04:02:00;96812.13;;;6.39;78.71
75146;BME280;63641;46.526;24.612;2023-11-21T04:04:27;96814.28;;;6.42;78.78
75146;BME280;63641;46.526;24.612;2023-11-21T04:06:54;96812.94;;;6.45;78.86
75146;BME280;63641;46.526;24.612;2023-11-21T04:09:21;96819.13;;;6.45;78.69
75146;BME280;63641;46.526;24.612;2023-11-21T04:11:51;96820.72;;;6.46;78.65
75146;BME280;63641;46.526;24.612;2023-11-21T04:14:19;96819.13;;;6.45;78.61
75146;BME280;63641;46.526;24.612;2023-11-21T04:16:45;96819.13;;;6.45;78.50
75146;BME280;63641;46.526;24.612;2023-11-21T04:19:12;96825.59;;;6.44;78.54
75146;BME280;63641;46.526;24.612;2023-11-21T04:21:42;96832.00;;;6.43;78.70
75146;BME280;63641;46.526;24.612;2023-11-21T04:24:09;96827.72;;;6.42;78.43
75146;BME280;63641;46.526;24.612;2023-11-21T04:26:36;96824.47;;;6.40;78.52
75146;BME280;63641;46.526;24.612;2023-11-21T04:29:03;96824.75;;;6.39;78.71
75146;BME280;63641;46.526;24.612;2023-11-21T04:31:30;96825.28;;;6.36;78.89
75146;BME280;63641;46.526;24.612;2023-11-21T04:33:58;96828.50;;;6.33;78.51
75146;BME280;63641;46.526;24.612;2023-11-21T04:36:25;96827.69;;;6.27;78.54
75146;BME280;63641;46.526;24.612;2023-11-21T04:38:52;96808.84;;;6.12;78.65
75146;BME280;63641;46.526;24.612;2023-11-21T04:41:18;96811.53;;;6.17;78.81
75146;BME280;63641;46.526;24.612;2023-11-21T04:43:45;96806.69;;;6.14;78.37
75146;BME280;63641;46.526;24.612;2023-11-21T04:46:12;96807.78;;;6.08;78.41
75146;BME280;63641;46.526;24.612;2023-11-21T04:48:39;96815.00;;;6.02;78.47
75146;BME280;63641;46.526;24.612;2023-11-21T04:51:05;96803.97;;;5.98;78.42
75146;BME280;63641;46.526;24.612;2023-11-21T04:53:33;96805.56;;;5.94;78.46
75146;BME280;63641;46.526;24.612;2023-11-21T04:56:01;96805.53;;;5.89;78.37
75146;BME280;63641;46.526;24.612;2023-11-21T04:58:27;96805.53;;;5.89;78.28
75146;BME280;63641;46.526;24.612;2023-11-21T05:00:54;96805.22;;;5.80;78.20
75146;BME280;63641;46.526;24.612;2023-11-21T05:03:20;96810.03;;;5.73;78.09
75146;BME280;63641;46.526;24.612;2023-11-21T05:05:49;96813.00;;;5.72;77.86
75146;BME280;63641;46.526;24.612;2023-11-21T05:08:15;96808.94;;;5.64;77.78
75146;BME280;63641;46.526;24.612;2023-11-21T05:10:42;96804.03;;;5.51;77.64
75146;BME280;63641;46.526;24.612;2023-11-21T05:13:09;96813.69;;;5.47;77.49
75146;BME280;63641;46.526;24.612;2023-11-21T05:15:37;96827.09;;;5.47;77.55
75146;BME280;63641;46.526;24.612;2023-11-21T05:18:05;96827.59;;;5.39;77.55
75146;BME280;63641;46.526;24.612;2023-11-21T05:20:33;96825.69;;;5.34;77.63
75146;BME280;63641;46.526;24.612;2023-11-21T05:22:59;96814.91;;;5.29;77.34
75146;BME280;63641;46.526;24.612;2023-11-21T05:25:26;96820.78;;;5.21;77.34
75146;BME280;63641;46.526;24.612;2023-11-21T05:27:54;96822.88;;;5.14;77.38
75146;BME280;63641;46.526;24.612;2023-11-21T05:30:25;96822.03;;;5.08;77.22
75146;BME280;63641;46.526;24.612;2023-11-21T05:32:52;96825.47;;;5.03;77.38
75146;BME280;63641;46.526;24.612;2023-11-21T05:35:20;96830.34;;;5.06;77.96
75146;BME280;63641;46.526;24.612;2023-11-21T05:37:47;96837.00;;;5.04;77.54
75146;BME280;63641;46.526;24.612;2023-11-21T05:40:14;96836.72;;;5.00;77.49
75146;BME280;63641;46.526;24.612;2023-11-21T05:42:41;96827.56;;;4.91;77.56
75146;BME280;63641;46.526;24.612;2023-11-21T05:45:09;96841.25;;;4.95;77.54
75146;BME280;63641;46.526;24.612;2023-11-21T05:47:38;96835.03;;;4.89;77.58
75146;BME280;63641;46.526;24.612;2023-11-21T05:50:09;96838.28;;;4.91;77.67
75146;BME280;63641;46.526;24.612;2023-11-21T05:52:37;96831.34;;;4.95;77.67
75146;BME280;63641;46.526;24.612;2023-11-21T05:55:04;96828.03;;;4.83;77.65
75146;BME280;63641;46.526;24.612;2023-11-21T05:57:34;96835.31;;;4.93;77.75
75146;BME280;63641;46.526;24.612;2023-11-21T06:00:07;96820.78;;;4.83;77.79
75146;BME280;63641;46.526;24.612;2023-11-21T06:02:39;96843.16;;;4.99;77.96
75146;BME280;63641;46.526;24.612;2023-11-21T06:05:07;96845.84;;;4.99;77.95
75146;BME280;63641;46.526;24.612;2023-11-21T06:07:34;96844.53;;;5.02;77.82
75146;BME280;63641;46.526;24.612;2023-11-21T06:10:03;96849.59;;;4.98;77.73
75146;BME280;63641;46.526;24.612;2023-11-21T06:12:33;96844.75;;;4.95;77.78
75146;BME280;63641;46.526;24.612;2023-11-21T06:15:05;96837.75;;;4.94;77.77
75146;BME280;63641;46.526;24.612;2023-11-21T06:17:35;96835.09;;;4.94;78.00
75146;BME280;63641;46.526;24.612;2023-11-21T06:20:04;96842.56;;;4.92;77.81
75146;BME280;63641;46.526;24.612;2023-11-21T06:22:40;96843.72;;;5.01;77.91
75146;BME280;63641;46.526;24.612;2023-11-21T06:25:08;96839.69;;;5.04;77.97
75146;BME280;63641;46.526;24.612;2023-11-21T06:27:43;96845.63;;;5.06;78.08
75146;BME280;63641;46.526;24.612;2023-11-21T06:30:14;96846.16;;;5.08;78.21
75146;BME280;63641;46.526;24.612;2023-11-21T06:32:42;96844.84;;;5.11;78.22
75146;BME280;63641;46.526;24.612;2023-11-21T06:35:13;96846.22;;;5.13;78.29
75146;BME280;63641;46.526;24.612;2023-11-21T06:37:40;96855.09;;;5.19;78.51
75146;BME280;63641;46.526;24.612;2023-11-21T06:40:07;96855.66;;;5.26;78.54
75146;BME280;63641;46.526;24.612;2023-11-21T06:42:36;96854.91;;;5.30;78.37
75146;BME280;63641;46.526;24.612;2023-11-21T06:45:05;96833.13;;;5.22;78.45
75146;BME280;63641;46.526;24.612;2023-11-21T06:47:32;96857.09;;;5.39;78.47
75146;BME280;63641;46.526;24.612;2023-11-21T06:49:59;96855.75;;;5.36;78.36
75146;BME280;63641;46.526;24.612;2023-11-21T06:52:27;96861.69;;;5.43;78.36
75146;BME280;63641;46.526;24.612;2023-11-21T06:54:54;96854.94;;;5.41;78.60
75146;BME280;63641;46.526;24.612;2023-11-21T06:57:23;96863.28;;;5.44;78.45
75146;BME280;63641;46.526;24.612;2023-11-21T06:59:50;96869.72;;;5.43;78.46
75146;BME280;63641;46.526;24.612;2023-11-21T07:02:19;96880.25;;;5.50;78.42
75146;BME280;63641;46.526;24.612;2023-11-21T07:04:46;96872.44;;;5.48;78.71
75146;BME280;63641;46.526;24.612;2023-11-21T07:07:13;96858.78;;;5.50;78.66
75146;BME280;63641;46.526;24.612;2023-11-21T07:09:40;96860.38;;;5.51;78.85
75146;BME280;63641;46.526;24.612;2023-11-21T07:12:07;96867.19;;;5.64;78.82
75146;BME280;63641;46.526;24.612;2023-11-21T07:14:34;96869.59;;;5.65;78.93
75146;BME280;63641;46.526;24.612;2023-11-21T07:17:01;96861.59;;;5.75;78.90
75146;BME280;63641;46.526;24.612;2023-11-21T07:19:28;96856.78;;;5.82;79.00
75146;BME280;63641;46.526;24.612;2023-11-21T07:21:55;96850.63;;;5.87;79.10
75146;BME280;63641;46.526;24.612;2023-11-21T07:24:22;96849.03;;;5.91;79.15
75146;BME280;63641;46.526;24.612;2023-11-21T07:26:53;96850.16;;;5.95;79.14
75146;BME280;63641;46.526;24.612;2023-11-21T07:29:23;96858.78;;;6.02;79.19
75146;BME280;63641;46.526;24.612;2023-11-21T07:31:55;96835.13;;;5.94;79.22
75146;BME280;63641;46.526;24.612;2023-11-21T07:34:21;96862.56;;;6.12;79.31
75146;BME280;63641;46.526;24.612;2023-11-21T07:36:49;96866.31;;;6.11;79.15
75146;BME280;63641;46.526;24.612;2023-11-21T07:39:15;96861.50;;;6.08;79.43
75146;BME280;63641;46.526;24.612;2023-11-21T07:41:43;96861.75;;;6.11;79.53
75146;BME280;63641;46.526;24.612;2023-11-21T07:44:18;96868.19;;;6.10;79.51
75146;BME280;63641;46.526;24.612;2023-11-21T07:46:47;96870.09;;;6.15;79.74
75146;BME280;63641;46.526;24.612;2023-11-21T07:49:14;96871.72;;;6.16;79.57
75146;BME280;63641;46.526;24.612;2023-11-21T07:51:47;96870.13;;;6.20;79.81
75146;BME280;63641;46.526;24.612;2023-11-21T07:54:14;96866.34;;;6.21;79.67
75146;BME280;63641;46.526;24.612;2023-11-21T07:56:40;96863.41;;;6.22;79.70
75146;BME280;63641;46.526;24.612;2023-11-21T07:59:07;96856.16;;;6.28;79.79
75146;BME280;63641;46.526;24.612;2023-11-21T08:01:34;96857.25;;;6.32;79.82
75146;BME280;63641;46.526;24.612;2023-11-21T08:04:00;96853.47;;;6.33;79.83
75146;BME280;63641;46.526;24.612;2023-11-21T08:06:31;96840.31;;;6.32;79.86
75146;BME280;63641;46.526;24.612;2023-11-21T08:08:59;96852.69;;;6.43;80.01
75146;BME280;63641;46.526;24.612;2023-11-21T08:11:26;96858.63;;;6.50;79.93
75146;BME280;63641;46.526;24.612;2023-11-21T08:13:56;96857.81;;;6.54;80.11
75146;BME280;63641;46.526;24.612;2023-11-21T08:16:23;96854.88;;;6.66;80.16
75146;BME280;63641;46.526;24.612;2023-11-21T08:18:51;96866.19;;;6.78;80.05
75146;BME280;63641;46.526;24.612;2023-11-21T08:21:18;96850.88;;;6.84;80.20
75146;BME280;63641;46.526;24.612;2023-11-21T08:23:45;96862.44;;;7.00;80.04
75146;BME280;63641;46.526;24.612;2023-11-21T08:26:16;96857.34;;;7.04;80.20
75146;BME280;63641;46.526;24.612;2023-11-21T08:28:42;96867.28;;;7.18;80.00
75146;BME280;63641;46.526;24.612;2023-11-21T08:31:09;96864.84;;;7.27;80.06
75146;BME280;63641;46.526;24.612;2023-11-21T08:33:36;96864.84;;;7.37;79.84
75146;BME280;63641;46.526;24.612;2023-11-21T08:36:07;96853.78;;;7.39;80.00
75146;BME280;63641;46.526;24.612;2023-11-21T08:38:34;96860.44;;;7.62;79.81
75146;BME280;63641;46.526;24.612;2023-11-21T08:41:07;96860.19;;;7.73;79.72
75146;BME280;63641;46.526;24.612;2023-11-21T08:43:37;96861.19;;;7.88;79.68
75146;BME280;63641;46.526;24.612;2023-11-21T08:46:07;96854.97;;;7.97;79.33
75146;BME280;63641;46.526;24.612;2023-11-21T08:48:36;96859.75;;;8.11;79.05
75146;BME280;63641;46.526;24.612;2023-11-21T08:51:03;96852.44;;;8.21;78.80
75146;BME280;63641;46.526;24.612;2023-11-21T08:53:31;96864.47;;;8.39;78.46
75146;BME280;63641;46.526;24.612;2023-11-21T08:55:57;96855.78;;;8.53;78.24
75146;BME280;63641;46.526;24.612;2023-11-21T08:58:25;96863.78;;;8.68;78.04
75146;BME280;63641;46.526;24.612;2023-11-21T09:00:51;96860.41;;;8.86;77.52
75146;BME280;63641;46.526;24.612;2023-11-21T09:03:18;96860.28;;;9.02;76.93
75146;BME280;63641;46.526;24.612;2023-11-21T09:05:45;96854.19;;;9.20;76.68
75146;BME280;63641;46.526;24.612;2023-11-21T09:08:12;96858.38;;;9.36;76.32
75146;BME280;63641;46.526;24.612;2023-11-21T09:10:39;96845.81;;;9.51;75.55
75146;BME280;63641;46.526;24.612;2023-11-21T09:13:06;96837.66;;;9.56;75.26
75146;BME280;63641;46.526;24.612;2023-11-21T09:15:35;96846.84;;;9.79;74.72
75146;BME280;63641;46.526;24.612;2023-11-21T09:18:02;96819.34;;;9.77;74.33
75146;BME280;63641;46.526;24.612;2023-11-21T09:20:29;96843.56;;;10.06;73.90
75146;BME280;63641;46.526;24.612;2023-11-21T09:22:55;96832.59;;;10.16;73.45
75146;BME280;63641;46.526;24.612;2023-11-21T09:25:22;96823.75;;;10.34;73.06
75146;BME280;63641;46.526;24.612;2023-11-21T09:27:49;96828.13;;;10.49;72.35
75146;BME280;63641;46.526;24.612;2023-11-21T09:30:16;96825.00;;;10.61;72.05
75146;BME280;63641;46.526;24.612;2023-11-21T09:32:43;96820.53;;;10.70;71.54
75146;BME280;63641;46.526;24.612;2023-11-21T09:35:12;96819.06;;;10.78;71.11
75146;BME280;63641;46.526;24.612;2023-11-21T09:37:41;96802.13;;;10.86;71.07
75146;BME280;63641;46.526;24.612;2023-11-21T09:40:10;96799.56;;;10.95;70.68
75146;BME280;63641;46.526;24.612;2023-11-21T09:42:41;96796.19;;;11.03;70.35
75146;BME280;63641;46.526;24.612;2023-11-21T09:45:28;96803.03;;;11.14;69.92
75146;BME280;63641;46.526;24.612;2023-11-21T09:47:56;96806.06;;;11.26;69.78
75146;BME280;63641;46.526;24.612;2023-11-21T09:50:24;96812.91;;;11.37;69.30
75146;BME280;63641;46.526;24.612;2023-11-21T09:55:34;96799.56;;;11.55;68.64
75146;BME280;63641;46.526;24.612;2023-11-21T09:58:05;96807.91;;;11.58;68.29
75146;BME280;63641;46.526;24.612;2023-11-21T10:00:52;96804.81;;;11.65;68.04
75146;BME280;63641;46.526;24.612;2023-11-21T10:03:19;96798.41;;;11.75;67.40
75146;BME280;63641;46.526;24.612;2023-11-21T10:05:48;96798.72;;;11.87;66.89
75146;BME280;63641;46.526;24.612;2023-11-21T10:08:17;96791.28;;;11.93;66.54
75146;BME280;63641;46.526;24.612;2023-11-21T10:10:49;96795.88;;;12.06;66.24
75146;BME280;63641;46.526;24.612;2023-11-21T10:13:18;96789.13;;;12.17;65.80
75146;BME280;63641;46.526;24.612;2023-11-21T10:15:50;96788.41;;;12.25;65.48
75146;BME280;63641;46.526;24.612;2023-11-21T10:18:17;96775.75;;;12.35;65.26
75146;BME280;63641;46.526;24.612;2023-11-21T10:20:45;96786.56;;;12.48;64.67
75146;BME280;63641;46.526;24.612;2023-11-21T10:23:20;96780.06;;;12.58;64.04
75146;BME280;63641;46.526;24.612;2023-11-21T10:25:50;96780.44;;;12.65;63.64
75146;BME280;63641;46.526;24.612;2023-11-21T10:28:18;96780.03;;;12.72;63.79
75146;BME280;63641;46.526;24.612;2023-11-21T10:30:47;96774.38;;;12.82;63.19
75146;BME280;63641;46.526;24.612;2023-11-21T10:33:14;96778.84;;;12.87;62.92
75146;BME280;63641;46.526;24.612;2023-11-21T10:35:48;96774.44;;;12.99;62.65
75146;BME280;63641;46.526;24.612;2023-11-21T10:38:18;96773.22;;;13.05;62.48
75146;BME280;63641;46.526;24.612;2023-11-21T10:40:46;96764.94;;;13.11;61.94
75146;BME280;63641;46.526;24.612;2023-11-21T10:43:14;96762.19;;;13.02;61.47
75146;BME280;63641;46.526;24.612;2023-11-21T10:45:43;96761.59;;;13.14;61.85
75146;BME280;63641;46.526;24.612;2023-11-21T10:48:13;96761.50;;;13.19;61.83
75146;BME280;63641;46.526;24.612;2023-11-21T10:50:45;96764.13;;;13.33;61.67
75146;BME280;63641;46.526;24.612;2023-11-21T10:53:12;96757.63;;;13.42;61.06
75146;BME280;63641;46.526;24.612;2023-11-21T10:55:40;96757.66;;;13.51;60.94
75146;BME280;63641;46.526;24.612;2023-11-21T10:58:07;96756.56;;;13.61;60.77
75146;BME280;63641;46.526;24.612;2023-11-21T11:00:38;96755.63;;;13.65;60.44
75146;BME280;63641;46.526;24.612;2023-11-21T11:03:07;96746.50;;;13.61;60.24
75146;BME280;63641;46.526;24.612;2023-11-21T11:05:40;96746.16;;;13.54;60.04
75146;BME280;63641;46.526;24.612;2023-11-21T11:08:12;96751.41;;;13.50;59.95
75146;BME280;63641;46.526;24.612;2023-11-21T11:10:45;96756.91;;;13.59;59.80
75146;BME280;63641;46.526;24.612;2023-11-21T11:13:15;96749.22;;;13.61;59.61
75146;BME280;63641;46.526;24.612;2023-11-21T11:15:42;96752.09;;;13.65;59.24
75146;BME280;63641;46.526;24.612;2023-11-21T11:18:11;96747.19;;;13.75;59.10
75146;BME280;63641;46.526;24.612;2023-11-21T11:20:39;96754.09;;;13.90;58.73
75146;BME280;63641;46.526;24.612;2023-11-21T11:23:10;96755.25;;;13.98;58.38
75146;BME280;63641;46.526;24.612;2023-11-21T11:28:57;96748.38;;;13.92;58.04
75146;BME280;63641;46.526;24.612;2023-11-21T11:31:51;96747.69;;;13.86;58.00
75146;BME280;63641;46.526;24.612;2023-11-21T11:37:18;96749.13;;;13.84;57.79
75146;BME280;63641;46.526;24.612;2023-11-21T11:39:46;96749.28;;;13.87;57.72
75146;BME280;63641;46.526;24.612;2023-11-21T11:42:15;96746.91;;;13.86;57.46
75146;BME280;63641;46.526;24.612;2023-11-21T11:52:52;96743.09;;;14.04;56.90
75146;BME280;63641;46.526;24.612;2023-11-21T11:55:24;96733.81;;;14.05;56.76
75146;BME280;63641;46.526;24.612;2023-11-21T11:57:53;96729.66;;;14.08;56.45
75146;BME280;63641;46.526;24.612;2023-11-21T12:00:33;96726.31;;;14.11;56.48
75146;BME280;63641;46.526;24.612;2023-11-21T12:03:05;96717.50;;;14.05;56.30
75146;BME280;63641;46.526;24.612;2023-11-21T12:05:33;96714.31;;;14.03;56.41
75146;BME280;63641;46.526;24.612;2023-11-21T12:08:03;96721.81;;;14.06;56.31
75146;BME280;63641;46.526;24.612;2023-11-21T12:10:35;96729.97;;;14.06;56.28
75146;BME280;63641;46.526;24.612;2023-11-21T12:13:05;96729.00;;;14.02;56.22
75146;BME280;63641;46.526;24.612;2023-11-21T12:15:34;96720.84;;;13.93;56.43
75146;BME280;63641;46.526;24.612;2023-11-21T12:18:02;96710.75;;;13.85;56.79
75146;BME280;63641;46.526;24.612;2023-11-21T12:20:30;96697.94;;;13.86;56.54
75146;BME280;63641;46.526;24.612;2023-11-21T12:22:59;96687.53;;;13.70;56.52
75146;BME280;63641;46.526;24.612;2023-11-21T12:25:30;96696.78;;;13.61;56.76
75146;BME280;63641;46.526;24.612;2023-11-21T12:28:01;96689.50;;;13.39;57.05
75146;BME280;63641;46.526;24.612;2023-11-21T12:30:31;96692.38;;;13.34;57.21
75146;BME280;63641;46.526;24.612;2023-11-21T12:32:59;96713.63;;;13.32;56.99
75146;BME280;63641;46.526;24.612;2023-11-21T12:35:34;96703.88;;;13.31;56.91
75146;BME280;63641;46.526;24.612;2023-11-21T12:38:02;96710.06;;;13.22;57.04
75146;BME280;63641;46.526;24.612;2023-11-21T12:40:30;96718.81;;;13.19;56.94
75146;BME280;63641;46.526;24.612;2023-11-21T12:42:58;96719.44;;;13.16;56.94
75146;BME280;63641;46.526;24.612;2023-11-21T12:45:28;96702.00;;;13.09;56.76
75146;BME280;63641;46.526;24.612;2023-11-21T12:48:02;96718.31;;;13.17;56.79
75146;BME280;63641;46.526;24.612;2023-11-21T12:50:34;96720.41;;;13.20;56.97
75146;BME280;63641;46.526;24.612;2023-11-21T12:53:07;96718.81;;;13.19;56.89
75146;BME280;63641;46.526;24.612;2023-11-21T12:55:36;96705.34;;;13.14;56.98
75146;BME280;63641;46.526;24.612;2023-11-21T12:58:09;96710.94;;;13.09;57.01
75146;BME280;63641;46.526;24.612;2023-11-21T13:00:44;96706.28;;;13.01;57.27
75146;BME280;63641;46.526;24.612;2023-11-21T13:03:13;96706.38;;;12.96;57.52
75146;BME280;63641;46.526;24.612;2023-11-21T13:05:48;96709.09;;;12.96;57.47
75146;BME280;63641;46.526;24.612;2023-11-21T13:08:20;96710.38;;;12.90;57.81
75146;BME280;63641;46.526;24.612;2023-11-21T13:10:53;96708.78;;;12.89;57.99
75146;BME280;63641;46.526;24.612;2023-11-21T13:13:23;96707.16;;;12.88;58.29
75146;BME280;63641;46.526;24.612;2023-11-21T13:15:53;96695.91;;;12.80;58.38
75146;BME280;63641;46.526;24.612;2023-11-21T13:18:24;96701.16;;;12.77;58.45
75146;BME280;63641;46.526;24.612;2023-11-21T13:20:52;96707.22;;;12.74;58.57
75146;BME280;63641;46.526;24.612;2023-11-21T13:23:19;96703.34;;;12.66;58.74